createdAt,value
2022-08-17T00:00:43.353Z,28.33
2022-08-17T00:03:02.865Z,25.37
2022-08-17T00:05:31.597Z,27.30
2022-08-17T00:07:58.507Z,27.93
2022-08-17T00:10:25.276Z,25.97
2022-08-17T00:12:52.495Z,28.90
2022-08-17T00:15:21.143Z,27.83
2022-08-17T00:17:50.172Z,26.80
2022-08-17T00:20:17.449Z,29.13
2022-08-17T00:22:46.529Z,28.50
2022-08-17T00:25:16.635Z,29.17
2022-08-17T00:27:43.094Z,29.03
2022-08-17T00:30:11.637Z,29.43
2022-08-17T00:33:12.213Z,30.70
2022-08-17T00:35:34.703Z,30.60
2022-08-17T00:38:01.198Z,30.93
2022-08-17T00:40:27.893Z,31.40
2022-08-17T00:43:35.956Z,30.57
2022-08-17T00:46:14.520Z,33.13
2022-08-17T00:48:42.198Z,34.23
2022-08-17T00:51:22.917Z,30.47
2022-08-17T00:54:04.649Z,32.73
2022-08-17T00:56:44.952Z,33.27
2022-08-17T00:59:14.714Z,33.53
2022-08-17T01:01:41.705Z,34.23
2022-08-17T01:04:08.663Z,34.60
2022-08-17T01:06:35.683Z,34.67
2022-08-17T01:09:03.815Z,34.90
2022-08-17T01:11:32.740Z,33.90
2022-08-17T01:13:59.172Z,33.23
2022-08-17T01:16:30.657Z,35.00
2022-08-17T01:19:00.466Z,33.67
2022-08-17T01:21:39.380Z,35.23
2022-08-17T01:24:06.079Z,35.13
2022-08-17T01:26:33.332Z,35.63
2022-08-17T01:29:00.705Z,37.73
2022-08-17T01:31:30.856Z,37.77
2022-08-17T01:34:00.584Z,36.97
2022-08-17T01:36:28.383Z,36.77
2022-08-17T01:38:55.005Z,37.73
2022-08-17T01:41:21.880Z,39.00
2022-08-17T01:43:54.553Z,38.30
2022-08-17T01:46:28.199Z,37.90
2022-08-17T01:48:56.274Z,38.03
2022-08-17T01:51:23.645Z,40.63
2022-08-17T01:53:57.445Z,39.03
2022-08-17T01:56:24.689Z,39.47
2022-08-17T01:58:51.817Z,40.17
2022-08-17T02:01:21.557Z,39.50
2022-08-17T02:03:59.396Z,42.03
2022-08-17T02:06:31.390Z,41.57
2022-08-17T02:09:09.531Z,42.80
2022-08-17T02:11:43.664Z,41.97
2022-08-17T02:14:11.836Z,42.23
2022-08-17T02:16:40.231Z,42.83
2022-08-17T02:19:08.992Z,43.70
2022-08-17T02:21:36.819Z,42.67
2022-08-17T02:24:04.993Z,42.10
2022-08-17T02:26:31.604Z,43.13
2022-08-17T02:28:58.058Z,44.60
2022-08-17T02:31:24.485Z,45.53
2022-08-17T02:34:04.210Z,44.90
2022-08-17T02:36:35.598Z,47.17
2022-08-17T02:39:07.336Z,44.90
2022-08-17T02:41:34.229Z,45.70
2022-08-17T02:44:00.759Z,46.80
2022-08-17T02:46:28.321Z,48.53
2022-08-17T02:48:54.880Z,48.27
2022-08-17T02:51:21.297Z,45.80
2022-08-17T02:53:47.978Z,45.87
2022-08-17T02:56:14.441Z,47.27
2022-08-17T02:58:40.901Z,47.23
2022-08-17T03:01:09.969Z,48.70
2022-08-17T03:03:37.319Z,49.37
2022-08-17T03:06:04.421Z,51.10
2022-08-17T03:08:31.301Z,53.37
2022-08-17T03:10:57.716Z,56.07
2022-08-17T03:13:24.218Z,55.27
2022-08-17T03:15:50.861Z,57.53
2022-08-17T03:18:25.786Z,54.63
2022-08-17T03:20:57.896Z,54.70
2022-08-17T03:23:25.482Z,53.97
2022-08-17T03:25:53.755Z,55.73
2022-08-17T03:28:21.580Z,57.57
2022-08-17T03:30:48.322Z,58.07
2022-08-17T03:33:14.965Z,56.47
2022-08-17T03:35:41.853Z,57.83
2022-08-17T03:38:15.194Z,56.63
2022-08-17T03:40:57.135Z,60.50
2022-08-17T03:43:27.565Z,54.60
2022-08-17T03:46:27.940Z,55.87
2022-08-17T03:49:22.250Z,55.17
2022-08-17T03:52:07.332Z,56.70
2022-08-17T03:54:52.246Z,58.97
2022-08-17T03:57:19.221Z,57.87
2022-08-17T03:59:45.940Z,58.33
2022-08-17T04:02:24.782Z,59.93
2022-08-17T04:04:52.117Z,59.63
2022-08-17T04:07:22.727Z,59.90
2022-08-17T04:09:49.703Z,61.77
2022-08-17T04:12:18.497Z,61.83
2022-08-17T04:14:52.243Z,61.33
2022-08-17T04:17:21.316Z,59.33
2022-08-17T04:19:47.753Z,61.53
2022-08-17T04:22:30.582Z,60.20
2022-08-17T04:24:58.133Z,62.87
2022-08-17T04:27:25.379Z,64.23
2022-08-17T04:29:54.615Z,61.23
2022-08-17T04:32:59.376Z,61.57
2022-08-17T04:35:09.682Z,64.73
2022-08-17T04:37:36.173Z,66.00
2022-08-17T04:40:21.367Z,64.50
2022-08-17T04:43:07.548Z,62.77
2022-08-17T04:45:34.921Z,62.07
2022-08-17T04:48:01.562Z,61.13
2022-08-17T04:50:28.203Z,62.40
2022-08-17T04:52:54.853Z,60.80
2022-08-17T04:55:21.787Z,61.77
2022-08-17T04:57:48.278Z,59.67
2022-08-17T05:00:15.103Z,60.30
2022-08-17T05:02:49.788Z,58.23
2022-08-17T05:05:20.825Z,60.30
2022-08-17T05:07:47.553Z,57.43
2022-08-17T05:10:16.752Z,58.17
2022-08-17T05:12:43.561Z,55.23
2022-08-17T05:15:16.127Z,57.87
2022-08-17T05:17:43.715Z,56.47
2022-08-17T05:20:10.565Z,55.20
2022-08-17T05:22:37.227Z,55.90
2022-08-17T05:25:03.798Z,55.40
2022-08-17T05:27:35.079Z,56.23
2022-08-17T05:30:02.234Z,53.13
2022-08-17T05:32:39.006Z,56.73
2022-08-17T05:35:07.096Z,56.20
2022-08-17T05:37:33.587Z,57.33
2022-08-17T05:40:00.141Z,56.57
2022-08-17T05:42:26.762Z,55.93
2022-08-17T05:44:53.242Z,59.30
2022-08-17T05:47:20.835Z,56.97
2022-08-17T05:49:49.028Z,55.47
2022-08-17T05:52:46.324Z,53.93
2022-08-17T05:55:35.642Z,55.03
2022-08-17T05:58:27.202Z,53.23
2022-08-17T06:01:04.243Z,52.07
2022-08-17T06:03:40.588Z,52.50
2022-08-17T06:06:31.405Z,53.93
2022-08-17T06:09:13.258Z,50.43
2022-08-17T06:12:21.963Z,50.67
2022-08-17T06:15:07.428Z,50.30
2022-08-17T06:17:34.367Z,49.10
2022-08-17T06:20:06.712Z,47.17
2022-08-17T06:22:36.859Z,48.43
2022-08-17T06:25:09.994Z,47.17
2022-08-17T06:27:40.689Z,47.50
2022-08-17T06:30:27.350Z,48.20
2022-08-17T06:32:57.473Z,45.63
2022-08-17T06:35:47.620Z,46.63
2022-08-17T06:38:38.188Z,45.73
2022-08-17T06:41:12.256Z,42.37
2022-08-17T06:44:06.347Z,42.87
2022-08-17T06:46:48.472Z,42.10
2022-08-17T06:49:22.635Z,43.60
2022-08-17T06:51:58.076Z,41.37
2022-08-17T06:54:39.170Z,40.47
2022-08-17T06:57:28.260Z,42.83
2022-08-17T06:59:57.853Z,40.10
2022-08-17T07:02:51.011Z,38.97
2022-08-17T07:05:21.709Z,38.63
2022-08-17T07:08:03.098Z,38.90
2022-08-17T07:10:37.268Z,38.53
2022-08-17T07:13:29.363Z,37.57
2022-08-17T07:16:15.914Z,36.33
2022-08-17T07:18:43.750Z,37.70
2022-08-17T07:21:42.423Z,36.33
2022-08-17T07:24:30.193Z,40.37
2022-08-17T07:27:04.655Z,34.40
2022-08-17T07:29:34.284Z,34.47
2022-08-17T07:32:00.703Z,32.97
2022-08-17T07:34:27.237Z,34.03
2022-08-17T07:37:05.361Z,32.73
2022-08-17T07:39:31.843Z,32.73
2022-08-17T07:42:03.519Z,31.57
2022-08-17T07:44:30.033Z,29.53
2022-08-17T07:47:15.706Z,30.40
2022-08-17T07:49:47.403Z,31.30
2022-08-17T07:52:50.692Z,30.53
2022-08-17T07:55:32.715Z,30.40
2022-08-17T07:57:59.519Z,28.50
2022-08-17T08:00:32.079Z,29.37
2022-08-17T08:03:17.680Z,26.63
2022-08-17T08:05:51.539Z,26.80
2022-08-17T08:08:26.161Z,27.77
2022-08-17T08:11:02.295Z,26.67
2022-08-17T08:13:30.152Z,25.23
2022-08-17T08:16:24.428Z,24.23
2022-08-17T08:18:57.963Z,22.45
2022-08-17T08:21:30.690Z,21.85
2022-08-17T08:24:15.930Z,22.50
2022-08-17T08:27:07.137Z,22.73
2022-08-17T08:30:05.187Z,22.00
2022-08-17T08:32:48.596Z,21.40
2022-08-17T08:35:20.292Z,20.77
2022-08-17T08:38:00.013Z,17.75
2022-08-17T08:40:43.248Z,20.65
2022-08-17T08:43:52.212Z,18.35
2022-08-17T08:46:47.145Z,18.02
2022-08-17T08:49:45.265Z,18.83
2022-08-17T08:52:27.818Z,17.75
2022-08-17T08:55:03.266Z,16.92
2022-08-17T08:57:37.148Z,16.80
2022-08-17T09:00:18.123Z,15.95
2022-08-17T09:03:03.319Z,16.17
2022-08-17T09:05:56.185Z,14.75
2022-08-17T09:08:55.859Z,13.32
2022-08-17T09:11:25.241Z,12.25
2022-08-17T09:14:00.734Z,13.20
2022-08-17T09:16:33.113Z,13.00
2022-08-17T09:19:19.408Z,12.88
2022-08-17T09:21:54.530Z,12.50
2022-08-17T09:24:43.191Z,10.02
2022-08-17T09:27:23.929Z,9.82
2022-08-17T09:30:07.840Z,9.05
2022-08-17T09:32:38.692Z,8.75
2022-08-17T09:35:33.785Z,9.35
2022-08-17T09:38:29.128Z,9.50
2022-08-17T09:41:26.104Z,9.77
2022-08-17T09:44:30.051Z,8.23
2022-08-17T09:47:10.486Z,6.72
2022-08-17T09:49:45.624Z,6.25
2022-08-17T09:52:17.922Z,5.80
2022-08-17T09:54:45.262Z,6.45
2022-08-17T09:57:42.767Z,5.80
2022-08-17T10:00:17.824Z,5.35
2022-08-17T10:03:08.376Z,5.95
2022-08-17T10:05:56.596Z,5.38
2022-08-17T10:08:36.120Z,6.00
2022-08-17T10:11:16.033Z,5.38
2022-08-17T10:14:01.914Z,5.70
2022-08-17T10:17:02.760Z,5.90
2022-08-17T10:19:36.563Z,5.03
2022-08-17T10:22:34.964Z,5.88
2022-08-17T10:25:27.872Z,6.00
2022-08-17T10:28:14.262Z,4.82
2022-08-17T10:31:01.423Z,5.30
2022-08-17T10:33:49.351Z,5.10
2022-08-17T10:36:22.627Z,5.57
2022-08-17T10:39:52.671Z,4.88
2022-08-17T10:42:33.031Z,4.65
2022-08-17T10:45:07.339Z,5.18
2022-08-17T10:48:04.665Z,4.90
2022-08-17T10:50:59.839Z,4.70
2022-08-17T10:53:32.264Z,4.53
2022-08-17T10:56:13.904Z,4.38
2022-08-17T10:58:49.393Z,4.00
2022-08-17T11:01:17.022Z,4.22
2022-08-17T11:03:52.376Z,4.07
2022-08-17T11:06:39.034Z,3.88
2022-08-17T11:09:31.575Z,4.30
2022-08-17T11:12:07.259Z,4.20
2022-08-17T11:14:52.498Z,4.38
2022-08-17T11:17:43.240Z,4.85
2022-08-17T11:20:54.240Z,4.57
2022-08-17T11:23:39.898Z,4.40
2022-08-17T11:26:27.274Z,4.18
2022-08-17T11:28:59.515Z,4.07
2022-08-17T11:31:39.254Z,4.60
2022-08-17T11:34:23.331Z,4.30
2022-08-17T11:36:49.635Z,4.18
2022-08-17T11:39:43.157Z,4.25
2022-08-17T11:42:27.885Z,4.15
2022-08-17T11:45:32.073Z,4.38
2022-08-17T11:48:36.047Z,4.30
2022-08-17T11:51:35.656Z,4.78
2022-08-17T11:54:31.706Z,4.50
2022-08-17T11:56:53.320Z,4.55
2022-08-17T11:59:43.799Z,4.30
2022-08-17T12:02:31.773Z,4.30
2022-08-17T12:05:26.044Z,4.28
2022-08-17T12:08:01.379Z,4.45
2022-08-17T12:10:33.013Z,4.28
2022-08-17T12:13:05.931Z,3.45
2022-08-17T12:15:36.539Z,4.57
2022-08-17T12:18:03.513Z,4.07
2022-08-17T12:20:33.728Z,4.10
2022-08-17T12:23:21.779Z,4.35
2022-08-17T12:25:59.381Z,4.10
2022-08-17T12:28:29.035Z,4.22
2022-08-17T12:31:01.100Z,4.75
2022-08-17T12:33:28.907Z,4.90
2022-08-17T12:36:03.606Z,4.10
2022-08-17T12:38:34.381Z,4.65
2022-08-17T12:41:25.110Z,4.55
2022-08-17T12:44:03.658Z,4.53
2022-08-17T12:46:45.032Z,5.10
2022-08-17T12:49:22.890Z,4.57
2022-08-17T12:51:50.847Z,4.07
2022-08-17T12:54:45.133Z,4.25
2022-08-17T12:57:18.900Z,4.50
2022-08-17T12:59:50.522Z,4.68
2022-08-17T13:02:22.700Z,4.25
2022-08-17T13:04:49.351Z,3.92
2022-08-17T13:07:36.086Z,4.60
2022-08-17T13:10:03.454Z,3.95
2022-08-17T13:12:33.526Z,4.15
2022-08-17T13:15:00.560Z,4.15
2022-08-17T13:17:30.456Z,3.85
2022-08-17T13:19:57.370Z,3.97
2022-08-17T13:22:25.454Z,3.70
2022-08-17T13:24:55.181Z,4.00
2022-08-17T13:27:24.482Z,4.07
2022-08-17T13:29:53.796Z,3.72
2022-08-17T13:32:35.839Z,4.30
2022-08-17T13:35:50.111Z,4.28
2022-08-17T13:38:40.409Z,3.67
2022-08-17T13:41:07.502Z,4.18
2022-08-17T13:43:46.008Z,3.92
2022-08-17T13:46:18.476Z,3.95
2022-08-17T13:48:46.283Z,4.00
2022-08-17T13:51:15.935Z,4.15
2022-08-17T13:53:42.351Z,4.10
2022-08-17T13:56:36.940Z,3.60
2022-08-17T13:59:03.602Z,3.92
2022-08-17T14:01:50.937Z,4.18
2022-08-17T14:04:31.599Z,3.97
2022-08-17T14:07:02.720Z,3.88
2022-08-17T14:09:37.415Z,4.32
2022-08-17T14:12:08.539Z,4.20
2022-08-17T14:14:35.278Z,6.47
2022-08-17T14:17:01.838Z,4.35
2022-08-17T14:19:28.293Z,3.90
2022-08-17T14:21:58.869Z,4.22
2022-08-17T14:24:31.187Z,4.28
2022-08-17T14:26:59.083Z,4.10
2022-08-17T14:29:27.890Z,3.92
2022-08-17T14:31:55.219Z,4.18
2022-08-17T14:34:23.021Z,3.75
2022-08-17T14:36:49.719Z,4.05
2022-08-17T14:39:16.518Z,3.95
2022-08-17T14:41:43.465Z,4.03
2022-08-17T14:44:12.533Z,4.05
2022-08-17T14:46:43.378Z,4.57
2022-08-17T14:49:11.233Z,4.13
2022-08-17T14:51:43.748Z,4.40
2022-08-17T14:54:11.763Z,4.15
2022-08-17T14:57:15.562Z,4.30
2022-08-17T14:59:44.680Z,8.13
2022-08-17T15:02:11.246Z,4.10
2022-08-17T15:04:41.865Z,3.60
2022-08-17T15:07:11.480Z,6.13
2022-08-17T15:09:37.922Z,3.20
2022-08-17T15:12:06.470Z,3.22
2022-08-17T15:14:34.914Z,3.40
2022-08-17T15:17:03.432Z,3.10
2022-08-17T15:19:29.893Z,3.10
2022-08-17T15:21:56.318Z,3.58
2022-08-17T15:24:22.809Z,3.83
2022-08-17T15:26:49.260Z,3.88
2022-08-17T15:29:15.852Z,3.95
2022-08-17T15:31:42.302Z,4.45
2022-08-17T15:34:08.776Z,3.50
2022-08-17T15:36:35.830Z,3.72
2022-08-17T15:39:03.106Z,4.00
2022-08-17T15:41:29.847Z,3.70
2022-08-17T15:43:56.460Z,4.20
2022-08-17T15:46:25.623Z,4.10
2022-08-17T15:48:56.567Z,4.75
2022-08-17T15:51:28.996Z,4.85
2022-08-17T15:54:22.123Z,3.75
2022-08-17T15:56:49.507Z,3.97
2022-08-17T15:59:15.986Z,4.00
2022-08-17T16:02:29.867Z,4.72
2022-08-17T16:04:30.829Z,3.97
2022-08-17T16:06:59.299Z,3.80
2022-08-17T16:09:25.784Z,4.53
2022-08-17T16:11:55.060Z,4.03
2022-08-17T16:14:22.382Z,4.30
2022-08-17T16:16:50.516Z,5.00
2022-08-17T16:19:17.102Z,5.00
2022-08-17T16:21:43.564Z,5.32
2022-08-17T16:24:13.237Z,5.55
2022-08-17T16:26:40.387Z,5.60
2022-08-17T16:29:07.204Z,5.70
2022-08-17T16:31:34.318Z,5.70
2022-08-17T16:34:17.266Z,5.68
2022-08-17T16:36:55.198Z,10.50
2022-08-17T16:39:27.355Z,10.32
2022-08-17T16:41:54.448Z,9.52
2022-08-17T16:44:21.647Z,10.98
2022-08-17T16:46:48.522Z,7.05
2022-08-17T16:49:29.671Z,7.50
2022-08-17T16:52:03.273Z,7.30
2022-08-17T16:54:29.774Z,6.45
2022-08-17T16:56:56.240Z,6.57
2022-08-17T16:59:38.826Z,5.85
2022-08-17T17:02:11.053Z,5.93
2022-08-17T17:05:08.002Z,5.15
2022-08-17T17:07:40.535Z,5.80
2022-08-17T17:10:13.546Z,5.55
2022-08-17T17:13:03.015Z,5.43
2022-08-17T17:15:35.493Z,4.22
2022-08-17T17:18:06.168Z,3.70
2022-08-17T17:20:47.972Z,3.08
2022-08-17T17:23:28.145Z,3.15
2022-08-17T17:26:32.185Z,3.08
2022-08-17T17:29:11.033Z,3.47
2022-08-17T17:31:51.192Z,3.47
2022-08-17T17:34:18.412Z,3.08
2022-08-17T17:36:54.166Z,2.90
2022-08-17T17:39:37.008Z,3.47
2022-08-17T17:42:07.562Z,2.92
2022-08-17T17:44:38.269Z,3.00
2022-08-17T17:47:05.184Z,2.50
2022-08-17T17:49:43.882Z,2.60
2022-08-17T17:52:36.119Z,3.17
2022-08-17T17:55:23.637Z,6.13
2022-08-17T17:58:04.825Z,2.92
2022-08-17T18:00:39.584Z,4.43
2022-08-17T18:03:27.887Z,3.30
2022-08-17T18:05:57.583Z,3.28
2022-08-17T18:08:34.852Z,3.20
2022-08-17T18:11:34.790Z,6.80
2022-08-17T18:14:31.545Z,3.15
2022-08-17T18:17:00.210Z,3.75
2022-08-17T18:19:29.202Z,3.75
2022-08-17T18:22:05.069Z,3.78
2022-08-17T18:24:39.226Z,3.92
2022-08-17T18:27:23.317Z,3.95
2022-08-17T18:29:55.003Z,3.80
2022-08-17T18:32:28.295Z,4.00
2022-08-17T18:35:09.606Z,3.65
2022-08-17T18:37:39.094Z,4.30
2022-08-17T18:40:18.232Z,3.90
2022-08-17T18:42:56.083Z,4.38
2022-08-17T18:45:45.112Z,4.47
2022-08-17T18:48:33.095Z,4.83
2022-08-17T18:51:07.703Z,4.35
2022-08-17T18:53:40.607Z,4.15
2022-08-17T18:56:22.162Z,4.07
2022-08-17T18:58:57.048Z,4.87
2022-08-17T19:01:47.137Z,4.70
2022-08-17T19:04:28.376Z,4.47
2022-08-17T19:07:11.258Z,4.80
2022-08-17T19:09:45.929Z,5.97
2022-08-17T19:12:36.467Z,5.87
2022-08-17T19:15:03.275Z,5.43
2022-08-17T19:17:39.995Z,5.90
2022-08-17T19:20:17.132Z,6.23
2022-08-17T19:22:54.686Z,5.83
2022-08-17T19:25:27.018Z,5.50
2022-08-17T19:28:03.226Z,5.23
2022-08-17T19:30:30.199Z,5.67
2022-08-17T19:32:58.378Z,6.10
2022-08-17T19:35:27.749Z,4.93
2022-08-17T19:38:12.882Z,5.43
2022-08-17T19:40:53.544Z,5.80
2022-08-17T19:43:34.668Z,5.53
2022-08-17T19:46:10.213Z,5.40
2022-08-17T19:48:39.524Z,5.87
2022-08-17T19:51:30.755Z,6.03
2022-08-17T19:54:14.057Z,5.83
2022-08-17T19:56:55.800Z,6.23
2022-08-17T19:59:25.255Z,5.77
2022-08-17T20:01:54.586Z,6.07
2022-08-17T20:04:31.779Z,6.10
2022-08-17T20:07:06.718Z,6.13
2022-08-17T20:09:44.495Z,5.67
2022-08-17T20:12:14.500Z,6.37
2022-08-17T20:14:55.118Z,5.67
2022-08-17T20:17:25.072Z,6.47
2022-08-17T20:20:21.441Z,6.30
2022-08-17T20:22:54.832Z,5.67
2022-08-17T20:25:36.458Z,5.93
2022-08-17T20:28:17.492Z,6.43
2022-08-17T20:30:44.309Z,5.80
2022-08-17T20:33:32.323Z,5.73
2022-08-17T20:36:10.864Z,6.00
2022-08-17T20:38:41.070Z,6.10
2022-08-17T20:41:17.843Z,6.93
2022-08-17T20:43:51.223Z,7.40
2022-08-17T20:46:34.127Z,8.00
2022-08-17T20:49:23.898Z,8.47
2022-08-17T20:52:09.027Z,9.67
2022-08-17T20:54:57.308Z,10.53
2022-08-17T20:57:32.985Z,9.20
2022-08-17T21:00:15.268Z,8.23
2022-08-17T21:02:49.202Z,7.87
2022-08-17T21:05:34.478Z,7.03
2022-08-17T21:08:28.439Z,6.23
2022-08-17T21:10:55.620Z,8.50
2022-08-17T21:13:34.772Z,9.57
2022-08-17T21:16:08.013Z,8.87
2022-08-17T21:18:40.348Z,7.80
2022-08-17T21:21:31.835Z,7.80
2022-08-17T21:24:20.036Z,7.33
2022-08-17T21:26:58.623Z,8.60
2022-08-17T21:29:30.943Z,7.80
2022-08-17T21:31:59.081Z,7.57
2022-08-17T21:34:36.463Z,8.50
2022-08-17T21:37:28.536Z,9.20
2022-08-17T21:40:21.421Z,9.70
2022-08-17T21:42:51.456Z,10.37
2022-08-17T21:45:25.734Z,9.93
2022-08-17T21:48:21.144Z,9.67
2022-08-17T21:51:11.327Z,10.23
2022-08-17T21:53:50.541Z,9.53
2022-08-17T21:56:25.014Z,10.40
2022-08-17T21:59:01.170Z,11.00
2022-08-17T22:01:34.606Z,10.27
2022-08-17T22:04:11.347Z,10.87
2022-08-17T22:06:55.820Z,10.27
2022-08-17T22:09:30.062Z,11.00
2022-08-17T22:12:05.197Z,11.50
2022-08-17T22:14:53.243Z,11.90
2022-08-17T22:17:23.463Z,12.40
2022-08-17T22:19:56.565Z,11.17
2022-08-17T22:22:33.727Z,12.23
2022-08-17T22:25:08.495Z,12.47
2022-08-17T22:27:46.651Z,12.17
2022-08-17T22:30:32.938Z,13.37
2022-08-17T22:33:00.814Z,14.17
2022-08-17T22:35:32.587Z,14.63
2022-08-17T22:38:20.608Z,13.27
2022-08-17T22:40:51.991Z,14.27
2022-08-17T22:43:25.873Z,13.83
2022-08-17T22:45:55.545Z,13.93
2022-08-17T22:48:27.565Z,11.97
2022-08-17T22:51:12.507Z,12.83
2022-08-17T22:54:14.976Z,13.53
2022-08-17T22:57:14.324Z,13.03
2022-08-17T22:59:49.151Z,13.33
2022-08-17T23:02:20.296Z,13.47
2022-08-17T23:04:51.283Z,11.73
2022-08-17T23:07:19.011Z,11.60
2022-08-17T23:09:45.877Z,12.20
2022-08-17T23:12:16.352Z,11.17
2022-08-17T23:14:45.767Z,11.27
2022-08-17T23:17:12.797Z,10.80
2022-08-17T23:19:39.713Z,11.93
2022-08-17T23:22:07.531Z,11.70
2022-08-17T23:24:43.718Z,10.53
2022-08-17T23:27:10.701Z,11.10
2022-08-17T23:29:39.341Z,10.43
2022-08-17T23:32:06.445Z,11.27
2022-08-17T23:34:32.966Z,11.93
2022-08-17T23:37:02.124Z,11.30
2022-08-17T23:39:28.662Z,11.33
2022-08-17T23:41:59.331Z,11.23
2022-08-17T23:44:26.644Z,11.33
2022-08-17T23:46:54.091Z,10.73
2022-08-17T23:49:20.881Z,10.70
2022-08-17T23:51:48.335Z,10.83
2022-08-17T23:54:26.647Z,11.63
2022-08-17T23:56:53.139Z,13.27
2022-08-17T23:59:21.478Z,11.70
